createdAt,value
2022-11-09T00:01:43.060Z,2.03
2022-11-09T00:04:10.538Z,1.60
2022-11-09T00:06:37.957Z,1.50
2022-11-09T00:09:08.083Z,1.37
2022-11-09T00:11:36.778Z,1.30
2022-11-09T00:14:03.954Z,1.43
2022-11-09T00:16:30.558Z,1.63
2022-11-09T00:18:57.160Z,1.53
2022-11-09T00:21:25.161Z,1.60
2022-11-09T00:23:52.356Z,1.50
2022-11-09T00:26:20.882Z,1.70
2022-11-09T00:28:47.723Z,2.80
2022-11-09T00:31:17.459Z,1.90
2022-11-09T00:33:51.228Z,2.10
2022-11-09T00:36:18.724Z,1.90
2022-11-09T00:38:50.345Z,1.50
2022-11-09T00:41:17.528Z,1.50
2022-11-09T00:43:44.430Z,1.60
2022-11-09T00:46:11.311Z,1.77
2022-11-09T00:48:38.504Z,1.90
2022-11-09T00:51:05.617Z,1.90
2022-11-09T00:53:32.589Z,1.77
2022-11-09T00:56:00.732Z,2.80
2022-11-09T00:58:29.406Z,2.33
2022-11-09T01:00:57.556Z,2.10
2022-11-09T01:03:25.316Z,2.17
2022-11-09T01:05:52.890Z,1.97
2022-11-09T01:08:19.715Z,1.95
2022-11-09T01:10:48.765Z,1.70
2022-11-09T01:13:18.083Z,1.98
2022-11-09T01:15:50.450Z,1.90
2022-11-09T01:18:18.954Z,1.70
2022-11-09T01:20:47.111Z,2.00
2022-11-09T01:23:15.290Z,2.20
2022-11-09T01:25:42.910Z,1.95
2022-11-09T01:28:11.365Z,1.75
2022-11-09T01:30:41.357Z,1.75
2022-11-09T01:33:10.098Z,1.30
2022-11-09T01:35:38.225Z,1.88
2022-11-09T01:38:06.268Z,1.77
2022-11-09T01:40:35.382Z,1.90
2022-11-09T01:43:20.662Z,1.95
2022-11-09T01:46:11.029Z,2.00
2022-11-09T01:48:55.243Z,2.33
2022-11-09T01:51:27.508Z,2.10
2022-11-09T01:54:00.354Z,2.08
2022-11-09T01:56:27.828Z,2.40
2022-11-09T01:59:08.515Z,2.00
2022-11-09T02:01:36.572Z,2.17
2022-11-09T02:04:10.640Z,3.53
2022-11-09T02:06:37.413Z,2.28
2022-11-09T02:09:12.517Z,2.60
2022-11-09T02:11:39.224Z,2.50
2022-11-09T02:14:07.052Z,1.98
2022-11-09T02:16:34.417Z,1.45
2022-11-09T02:19:01.358Z,1.95
2022-11-09T02:21:30.986Z,1.85
2022-11-09T02:23:58.384Z,1.92
2022-11-09T02:26:32.837Z,2.10
2022-11-09T02:29:03.120Z,2.00
2022-11-09T02:31:35.012Z,1.70
2022-11-09T02:34:08.595Z,1.60
2022-11-09T02:36:35.479Z,1.73
2022-11-09T02:39:02.835Z,1.50
2022-11-09T02:41:31.758Z,2.00
2022-11-09T02:43:59.947Z,1.77
2022-11-09T02:46:35.652Z,1.80
2022-11-09T02:49:03.464Z,2.00
2022-11-09T02:51:30.634Z,1.60
2022-11-09T02:53:57.243Z,1.80
2022-11-09T02:56:24.208Z,2.15
2022-11-09T02:58:51.767Z,2.10
2022-11-09T03:01:18.455Z,2.20
2022-11-09T03:03:45.295Z,1.80
2022-11-09T03:06:11.879Z,2.80
2022-11-09T03:08:38.572Z,2.00
2022-11-09T03:11:06.300Z,1.80
2022-11-09T03:13:33.894Z,1.80
2022-11-09T03:16:08.934Z,1.80
2022-11-09T03:18:35.674Z,2.03
2022-11-09T03:21:04.668Z,2.00
2022-11-09T03:23:31.613Z,1.73
2022-11-09T03:25:58.173Z,1.60
2022-11-09T03:28:24.881Z,1.67
2022-11-09T03:30:51.631Z,1.77
2022-11-09T03:33:18.585Z,1.95
2022-11-09T03:35:45.444Z,1.60
2022-11-09T03:38:12.256Z,1.70
2022-11-09T03:40:39.312Z,1.73
2022-11-09T03:43:06.043Z,2.00
2022-11-09T03:45:32.843Z,1.80
2022-11-09T03:48:00.178Z,1.52
2022-11-09T03:50:32.461Z,2.20
2022-11-09T03:52:59.955Z,1.92
2022-11-09T03:55:26.793Z,2.55
2022-11-09T03:57:53.403Z,2.53
2022-11-09T04:00:22.647Z,2.70
2022-11-09T04:02:51.029Z,2.28
2022-11-09T04:05:17.841Z,1.95
2022-11-09T04:07:52.293Z,1.80
2022-11-09T04:10:20.875Z,1.80
2022-11-09T04:13:07.528Z,1.80
2022-11-09T04:15:34.271Z,1.90
2022-11-09T04:18:02.166Z,1.67
2022-11-09T04:20:30.864Z,1.55
2022-11-09T04:23:00.031Z,1.80
2022-11-09T04:25:29.178Z,1.70
2022-11-09T04:27:59.820Z,1.60
2022-11-09T04:30:30.576Z,1.95
2022-11-09T04:32:58.510Z,1.70
2022-11-09T04:35:26.520Z,1.80
2022-11-09T04:37:57.462Z,3.13
2022-11-09T04:40:26.134Z,3.10
2022-11-09T04:42:53.028Z,2.80
2022-11-09T04:45:21.179Z,3.10
2022-11-09T04:47:48.530Z,2.78
2022-11-09T04:50:15.704Z,2.03
2022-11-09T04:52:42.377Z,2.58
2022-11-09T04:55:09.328Z,1.92
2022-11-09T04:57:35.971Z,2.20
2022-11-09T05:00:03.573Z,2.60
2022-11-09T05:02:39.507Z,2.17
2022-11-09T05:05:06.726Z,1.63
2022-11-09T05:07:33.293Z,2.10
2022-11-09T05:09:59.913Z,2.28
2022-11-09T05:12:26.606Z,2.05
2022-11-09T05:14:53.228Z,2.10
2022-11-09T05:17:19.881Z,2.20
2022-11-09T05:19:46.553Z,2.05
2022-11-09T05:22:31.546Z,2.00
2022-11-09T05:24:58.174Z,2.60
2022-11-09T05:27:24.918Z,2.10
2022-11-09T05:29:51.556Z,2.35
2022-11-09T05:32:18.184Z,7.68
2022-11-09T05:34:44.775Z,4.30
2022-11-09T05:37:11.448Z,2.40
2022-11-09T05:39:38.109Z,2.20
2022-11-09T05:42:04.856Z,2.47
2022-11-09T05:44:31.535Z,2.35
2022-11-09T05:46:58.126Z,2.70
2022-11-09T05:49:24.729Z,2.38
2022-11-09T05:51:51.321Z,2.97
2022-11-09T05:54:18.063Z,2.60
2022-11-09T05:56:44.806Z,2.70
2022-11-09T05:59:11.478Z,2.10
2022-11-09T06:01:38.150Z,2.38
2022-11-09T06:04:04.963Z,2.50
2022-11-09T06:06:31.618Z,2.13
2022-11-09T06:08:58.307Z,1.88
2022-11-09T06:11:25.027Z,2.22
2022-11-09T06:13:52.570Z,2.20
2022-11-09T06:16:19.358Z,1.80
2022-11-09T06:18:45.946Z,1.98
2022-11-09T06:21:12.805Z,2.10
2022-11-09T06:23:39.548Z,2.30
2022-11-09T06:26:10.773Z,1.90
2022-11-09T06:31:06.715Z,2.80
2022-11-09T06:33:34.806Z,2.55
2022-11-09T06:36:02.371Z,2.42
2022-11-09T06:38:29.306Z,2.55
2022-11-09T06:40:58.213Z,2.40
2022-11-09T06:43:25.616Z,2.38
2022-11-09T06:45:52.258Z,2.22
2022-11-09T06:48:19.095Z,2.30
2022-11-09T06:50:45.921Z,3.15
2022-11-09T06:53:14.571Z,3.45
2022-11-09T06:55:45.713Z,3.40
2022-11-09T06:58:16.214Z,3.08
2022-11-09T07:00:44.107Z,2.72
2022-11-09T07:03:17.923Z,2.83
2022-11-09T07:05:45.322Z,2.42
2022-11-09T07:08:12.886Z,2.70
2022-11-09T07:10:40.007Z,2.85
2022-11-09T07:13:07.227Z,2.55
2022-11-09T07:15:35.617Z,3.55
2022-11-09T07:18:04.163Z,3.88
2022-11-09T07:20:31.262Z,3.38
2022-11-09T07:22:58.008Z,3.42
2022-11-09T07:25:27.790Z,2.97
2022-11-09T07:27:54.383Z,3.25
2022-11-09T07:30:21.149Z,3.03
2022-11-09T07:33:08.590Z,2.90
2022-11-09T07:35:34.543Z,3.55
2022-11-09T07:38:01.795Z,3.50
2022-11-09T07:40:28.692Z,3.50
2022-11-09T07:43:01.568Z,4.35
2022-11-09T07:45:29.503Z,3.63
2022-11-09T07:47:58.530Z,3.03
2022-11-09T07:50:26.189Z,3.13
2022-11-09T07:52:54.373Z,2.60
2022-11-09T07:55:21.053Z,2.50
2022-11-09T07:57:47.670Z,2.40
2022-11-09T08:00:17.723Z,2.50
2022-11-09T08:02:53.504Z,2.40
2022-11-09T08:05:20.326Z,2.40
2022-11-09T08:07:47.020Z,2.42
2022-11-09T08:10:14.344Z,2.50
2022-11-09T08:12:40.999Z,2.83
2022-11-09T08:15:08.038Z,2.45
2022-11-09T08:17:34.729Z,2.85
2022-11-09T08:20:01.455Z,2.40
2022-11-09T08:22:28.132Z,2.45
2022-11-09T08:24:54.865Z,3.75
2022-11-09T08:27:22.869Z,2.90
2022-11-09T08:29:49.610Z,2.50
2022-11-09T08:32:16.196Z,2.95
2022-11-09T08:34:47.373Z,3.03
2022-11-09T08:37:15.308Z,3.70
2022-11-09T08:39:41.997Z,4.10
2022-11-09T08:42:08.665Z,3.92
2022-11-09T08:44:35.224Z,3.25
2022-11-09T08:47:02.226Z,7.50
2022-11-09T08:49:28.900Z,6.43
2022-11-09T08:51:55.501Z,7.10
2022-11-09T08:54:22.161Z,2.50
2022-11-09T08:56:48.826Z,2.88
2022-11-09T08:59:15.531Z,3.30
2022-11-09T09:01:42.145Z,2.70
2022-11-09T09:04:08.840Z,3.00
2022-11-09T09:06:36.040Z,2.83
2022-11-09T09:09:02.736Z,2.63
2022-11-09T09:11:29.475Z,2.50
2022-11-09T09:13:56.190Z,3.00
2022-11-09T09:16:22.847Z,2.90
2022-11-09T09:18:49.714Z,2.63
2022-11-09T09:21:16.574Z,2.70
2022-11-09T09:23:43.154Z,2.60
2022-11-09T09:26:09.852Z,2.28
2022-11-09T09:28:36.434Z,2.80
2022-11-09T09:31:03.243Z,7.90
2022-11-09T09:33:29.920Z,3.03
2022-11-09T09:35:57.817Z,5.50
2022-11-09T09:38:29.155Z,3.90
2022-11-09T09:43:58.894Z,2.13
2022-11-09T09:46:28.701Z,2.78
2022-11-09T09:48:58.133Z,2.80
2022-11-09T09:51:47.576Z,2.70
2022-11-09T09:54:24.328Z,2.80
2022-11-09T09:56:53.366Z,5.63
2022-11-09T09:59:41.114Z,5.22
2022-11-09T10:02:23.250Z,2.70
2022-11-09T10:04:50.785Z,2.38
2022-11-09T10:07:39.672Z,2.50
2022-11-09T10:10:44.402Z,2.75
2022-11-09T10:13:36.879Z,2.53
2022-11-09T10:16:34.683Z,2.78
2022-11-09T10:19:32.052Z,4.90
2022-11-09T10:22:12.155Z,2.72
2022-11-09T10:28:13.051Z,2.10
2022-11-09T10:30:45.192Z,2.50
2022-11-09T10:33:11.802Z,2.17
2022-11-09T10:35:45.221Z,2.30
2022-11-09T10:38:31.501Z,2.25
2022-11-09T10:41:03.481Z,2.33
2022-11-09T10:43:30.046Z,2.10
2022-11-09T10:46:05.564Z,5.38
2022-11-09T10:48:35.780Z,4.15
2022-11-09T10:51:03.020Z,2.58
2022-11-09T10:53:32.658Z,2.33
2022-11-09T10:56:20.473Z,4.38
2022-11-09T10:58:50.964Z,2.50
2022-11-09T11:01:25.944Z,2.45
2022-11-09T11:03:54.542Z,2.63
2022-11-09T11:06:21.077Z,2.40
2022-11-09T11:09:06.065Z,2.63
2022-11-09T11:11:36.331Z,2.22
2022-11-09T11:14:23.322Z,2.42
2022-11-09T11:16:52.804Z,2.55
2022-11-09T11:19:28.284Z,2.70
2022-11-09T11:22:19.165Z,2.33
2022-11-09T11:25:11.585Z,2.78
2022-11-09T11:27:43.962Z,2.30
2022-11-09T11:30:11.692Z,2.30
2022-11-09T11:32:42.107Z,2.45
2022-11-09T11:35:23.095Z,2.50
2022-11-09T11:38:15.053Z,2.30
2022-11-09T11:40:55.418Z,2.50
2022-11-09T11:43:50.005Z,2.27
2022-11-09T11:46:41.483Z,2.00
2022-11-09T11:52:16.014Z,2.55
2022-11-09T11:54:58.006Z,2.10
2022-11-09T11:57:46.119Z,2.78
2022-11-09T12:00:18.494Z,2.40
2022-11-09T12:03:14.273Z,2.60
2022-11-09T12:05:43.756Z,2.72
2022-11-09T12:08:28.822Z,2.92
2022-11-09T12:11:08.901Z,2.80
2022-11-09T12:13:56.327Z,2.88
2022-11-09T12:16:43.177Z,2.63
2022-11-09T12:19:27.042Z,2.53
2022-11-09T12:22:09.062Z,2.72
2022-11-09T12:24:46.915Z,2.38
2022-11-09T12:27:33.428Z,2.47
2022-11-09T12:30:13.109Z,3.20
2022-11-09T12:32:54.725Z,2.90
2022-11-09T12:35:33.398Z,10.05
2022-11-09T12:38:12.868Z,2.42
2022-11-09T12:40:55.081Z,2.63
2022-11-09T12:43:30.105Z,2.83
2022-11-09T12:45:59.360Z,2.63
2022-11-09T12:48:32.120Z,3.15
2022-11-09T12:51:04.471Z,2.97
2022-11-09T12:53:36.459Z,3.35
2022-11-09T12:56:28.157Z,3.15
2022-11-09T12:59:21.369Z,2.92
2022-11-09T13:01:59.439Z,3.30
2022-11-09T13:04:27.324Z,3.08
2022-11-09T13:07:29.895Z,2.88
2022-11-09T13:09:59.126Z,2.33
2022-11-09T13:12:36.825Z,2.55
2022-11-09T13:15:27.295Z,2.70
2022-11-09T13:18:00.663Z,2.90
2022-11-09T13:24:00.005Z,2.20
2022-11-09T13:26:47.765Z,2.58
2022-11-09T13:29:14.625Z,2.88
2022-11-09T13:32:12.258Z,2.70
2022-11-09T13:34:54.540Z,2.63
2022-11-09T13:37:53.848Z,2.33
2022-11-09T13:40:32.723Z,2.80
2022-11-09T13:43:08.654Z,3.05
2022-11-09T13:45:48.563Z,2.92
2022-11-09T13:48:34.737Z,3.00
2022-11-09T13:51:05.770Z,3.05
2022-11-09T13:53:38.517Z,3.10
2022-11-09T13:56:30.155Z,3.67
2022-11-09T13:59:21.392Z,3.10
2022-11-09T14:01:59.747Z,3.40
2022-11-09T14:04:39.445Z,3.15
2022-11-09T14:07:11.918Z,3.58
2022-11-09T14:09:38.559Z,4.25
2022-11-09T14:12:20.930Z,4.47
2022-11-09T14:14:53.224Z,4.03
2022-11-09T14:17:57.204Z,3.75
2022-11-09T14:20:48.209Z,3.42
2022-11-09T14:23:29.300Z,3.13
2022-11-09T14:25:56.494Z,3.35
2022-11-09T14:28:27.315Z,4.70
2022-11-09T14:30:54.348Z,3.80
2022-11-09T14:33:25.088Z,3.70
2022-11-09T14:35:53.899Z,3.90
2022-11-09T14:38:31.315Z,3.75
2022-11-09T14:40:58.127Z,3.53
2022-11-09T14:43:25.283Z,4.10
2022-11-09T14:45:58.330Z,4.03
2022-11-09T14:48:25.429Z,3.90
2022-11-09T14:50:57.541Z,4.35
2022-11-09T14:53:28.464Z,4.03
2022-11-09T14:55:57.534Z,3.55
2022-11-09T14:58:24.657Z,3.42
2022-11-09T15:01:10.565Z,2.90
2022-11-09T15:03:37.243Z,2.45
2022-11-09T15:06:10.275Z,2.20
2022-11-09T15:08:47.156Z,2.25
2022-11-09T15:11:13.908Z,2.97
2022-11-09T15:13:41.678Z,2.70
2022-11-09T15:16:18.032Z,2.72
2022-11-09T15:18:47.310Z,2.67
2022-11-09T15:21:13.882Z,9.73
2022-11-09T15:23:46.342Z,15.75
2022-11-09T15:26:40.683Z,18.63
2022-11-09T15:29:38.065Z,17.45
2022-11-09T15:32:10.877Z,17.20
2022-11-09T15:34:43.911Z,19.20
2022-11-09T15:37:25.763Z,12.80
2022-11-09T15:39:52.566Z,13.95
2022-11-09T15:42:19.758Z,12.88
2022-11-09T15:44:46.713Z,14.18
2022-11-09T15:47:40.282Z,11.32
2022-11-09T15:50:16.668Z,9.85
2022-11-09T15:52:45.878Z,12.88
2022-11-09T15:55:14.194Z,12.95
2022-11-09T15:57:41.256Z,12.68
2022-11-09T16:00:17.830Z,12.48
2022-11-09T16:02:51.442Z,13.18
2022-11-09T16:05:18.712Z,11.65
2022-11-09T16:07:53.656Z,11.40
2022-11-09T16:10:27.809Z,9.90
2022-11-09T16:12:56.082Z,9.50
2022-11-09T16:15:23.968Z,9.82
2022-11-09T16:17:51.223Z,10.25
2022-11-09T16:20:19.207Z,9.73
2022-11-09T16:22:46.411Z,10.18
2022-11-09T16:25:14.110Z,10.43
2022-11-09T16:27:50.260Z,10.27
2022-11-09T16:30:19.299Z,10.40
2022-11-09T16:32:46.108Z,10.52
2022-11-09T16:35:26.794Z,12.45
2022-11-09T16:40:22.914Z,6.95
2022-11-09T16:42:51.607Z,7.10
2022-11-09T16:45:18.410Z,6.95
2022-11-09T16:47:50.871Z,7.55
2022-11-09T16:50:18.103Z,7.25
2022-11-09T16:52:45.377Z,6.72
2022-11-09T16:55:11.981Z,6.93
2022-11-09T16:57:38.762Z,7.05
2022-11-09T17:00:07.104Z,5.45
2022-11-09T17:02:40.717Z,7.25
2022-11-09T17:05:07.964Z,5.75
2022-11-09T17:07:42.201Z,6.10
2022-11-09T17:10:11.039Z,6.70
2022-11-09T17:12:37.626Z,5.68
2022-11-09T17:15:04.408Z,5.80
2022-11-09T17:17:31.034Z,5.57
2022-11-09T17:19:57.696Z,5.70
2022-11-09T17:22:24.434Z,6.05
2022-11-09T17:24:51.451Z,5.53
2022-11-09T17:27:18.096Z,6.40
2022-11-09T17:29:44.827Z,5.05
2022-11-09T17:32:11.718Z,5.13
2022-11-09T17:34:38.444Z,5.95
2022-11-09T17:37:05.800Z,5.47
2022-11-09T17:39:33.473Z,5.57
2022-11-09T17:42:00.119Z,4.53
2022-11-09T17:44:26.830Z,4.35
2022-11-09T17:46:53.585Z,2.33
2022-11-09T17:49:20.186Z,2.38
2022-11-09T17:51:46.819Z,2.42
2022-11-09T17:54:14.926Z,2.20
2022-11-09T17:56:41.941Z,2.67
2022-11-09T17:59:09.236Z,2.00
2022-11-09T18:01:41.018Z,1.73
2022-11-09T18:04:11.538Z,1.50
2022-11-09T18:06:38.892Z,1.33
2022-11-09T18:11:52.597Z,1.70
2022-11-09T18:14:19.502Z,1.90
2022-11-09T18:16:46.415Z,2.60
2022-11-09T18:19:13.148Z,2.95
2022-11-09T18:21:39.726Z,2.20
2022-11-09T18:24:06.785Z,3.00
2022-11-09T18:26:34.236Z,2.92
2022-11-09T18:29:01.063Z,2.60
2022-11-09T18:31:27.692Z,2.10
2022-11-09T18:33:54.481Z,2.40
2022-11-09T18:36:21.581Z,2.20
2022-11-09T18:38:51.050Z,2.30
2022-11-09T18:41:20.757Z,2.10
2022-11-09T18:43:48.593Z,1.40
2022-11-09T18:46:17.079Z,1.50
2022-11-09T18:48:44.178Z,1.65
2022-11-09T18:51:11.933Z,1.60
2022-11-09T18:53:43.795Z,1.70
2022-11-09T18:56:32.832Z,1.73
2022-11-09T18:58:59.951Z,1.90
2022-11-09T19:01:29.763Z,1.85
2022-11-09T19:03:59.790Z,1.50
2022-11-09T19:06:27.455Z,1.30
2022-11-09T19:09:12.863Z,1.30
2022-11-09T19:11:39.547Z,1.40
2022-11-09T19:14:06.161Z,2.00
2022-11-09T19:16:33.164Z,2.10
2022-11-09T19:18:59.935Z,2.50
2022-11-09T19:21:46.710Z,2.25
2022-11-09T19:24:16.565Z,2.83
2022-11-09T19:26:43.435Z,3.40
2022-11-09T19:29:11.641Z,3.92
2022-11-09T19:31:42.948Z,2.80
2022-11-09T19:36:47.327Z,4.05
2022-11-09T19:39:15.274Z,2.60
2022-11-09T19:41:42.466Z,2.00
2022-11-09T19:44:12.742Z,1.52
2022-11-09T19:46:39.353Z,1.40
2022-11-09T19:49:07.257Z,1.13
2022-11-09T19:51:34.813Z,1.13
2022-11-09T19:54:03.522Z,1.08
2022-11-09T19:56:31.868Z,0.90
2022-11-09T19:59:01.140Z,1.42
2022-11-09T20:01:28.721Z,1.67
2022-11-09T20:03:56.880Z,1.75
2022-11-09T20:06:24.777Z,2.05
2022-11-09T20:08:52.189Z,1.52
2022-11-09T20:11:42.708Z,1.27
2022-11-09T20:14:11.528Z,1.23
2022-11-09T20:16:39.727Z,1.27
2022-11-09T20:19:09.401Z,1.00
2022-11-09T20:21:37.520Z,1.10
2022-11-09T20:24:04.442Z,1.10
2022-11-09T20:26:31.104Z,1.20
2022-11-09T20:28:57.913Z,1.20
2022-11-09T20:31:24.868Z,1.00
2022-11-09T20:33:51.980Z,0.90
2022-11-09T20:36:19.477Z,1.20
2022-11-09T20:38:47.152Z,0.80
2022-11-09T20:41:13.852Z,1.00
2022-11-09T20:43:41.031Z,1.52
2022-11-09T20:46:16.529Z,1.00
2022-11-09T20:48:59.240Z,1.50
2022-11-09T20:51:26.595Z,2.10
2022-11-09T20:53:53.300Z,1.73
2022-11-09T20:56:21.577Z,1.60
2022-11-09T20:58:48.390Z,1.55
2022-11-09T21:01:22.668Z,1.30
2022-11-09T21:03:50.855Z,1.27
2022-11-09T21:06:18.629Z,1.67
2022-11-09T21:08:47.092Z,2.63
2022-11-09T21:11:13.949Z,4.25
2022-11-09T21:13:45.755Z,2.83
2022-11-09T21:16:17.327Z,2.00
2022-11-09T21:18:44.000Z,1.77
2022-11-09T21:21:35.053Z,1.70
2022-11-09T21:24:21.582Z,2.88
2022-11-09T21:27:06.612Z,3.47
2022-11-09T21:29:51.438Z,3.03
2022-11-09T21:32:19.984Z,3.05
2022-11-09T21:34:46.770Z,11.35
2022-11-09T21:37:15.881Z,4.60
2022-11-09T21:39:43.135Z,3.17
2022-11-09T21:42:13.960Z,2.50
2022-11-09T21:44:40.771Z,25.30
2022-11-09T21:47:08.183Z,5.15
2022-11-09T21:49:34.936Z,1.08
2022-11-09T21:52:01.899Z,1.40
2022-11-09T21:54:29.971Z,1.00
2022-11-09T21:56:56.835Z,2.10
2022-11-09T21:59:23.716Z,2.20
2022-11-09T22:01:50.448Z,2.00
2022-11-09T22:04:17.873Z,2.00
2022-11-09T22:06:44.710Z,1.90
2022-11-09T22:09:18.573Z,2.05
2022-11-09T22:12:03.887Z,2.00
2022-11-09T22:14:49.547Z,1.80
2022-11-09T22:17:16.220Z,1.70
2022-11-09T22:20:01.722Z,1.92
2022-11-09T22:22:30.649Z,1.80
2022-11-09T22:24:57.841Z,2.08
2022-11-09T22:27:24.663Z,1.88
2022-11-09T22:29:51.405Z,1.90
2022-11-09T22:32:18.076Z,1.63
2022-11-09T22:34:45.931Z,1.80
2022-11-09T22:37:12.680Z,2.08
2022-11-09T22:39:44.398Z,2.60
2022-11-09T22:42:13.638Z,2.65
2022-11-09T22:44:40.261Z,2.10
2022-11-09T22:47:06.976Z,2.40
2022-11-09T22:49:36.540Z,4.18
2022-11-09T22:52:03.871Z,3.70
2022-11-09T22:54:30.848Z,3.95
2022-11-09T22:56:57.464Z,3.67
2022-11-09T22:59:24.076Z,3.67
2022-11-09T23:01:50.733Z,2.60
2022-11-09T23:04:17.529Z,2.50
2022-11-09T23:06:44.466Z,2.47
2022-11-09T23:09:11.238Z,2.22
2022-11-09T23:11:37.837Z,1.98
2022-11-09T23:14:04.512Z,1.77
2022-11-09T23:16:31.131Z,1.42
2022-11-09T23:18:57.806Z,1.35
2022-11-09T23:21:24.449Z,1.45
2022-11-09T23:23:52.452Z,2.03
2022-11-09T23:26:19.564Z,1.30
2022-11-09T23:28:46.608Z,1.25
2022-11-09T23:31:16.368Z,0.90
2022-11-09T23:33:43.389Z,1.33
2022-11-09T23:36:10.490Z,1.27
2022-11-09T23:38:39.061Z,1.23
2022-11-09T23:41:08.423Z,1.10
2022-11-09T23:43:36.518Z,1.20
2022-11-09T23:46:11.800Z,1.30
2022-11-09T23:48:38.774Z,1.80
2022-11-09T23:51:05.677Z,2.95
2022-11-09T23:53:33.148Z,4.22
2022-11-09T23:56:05.868Z,3.38
2022-11-09T23:58:33.120Z,3.10
